sensor_id;sensor_type;location;lat;lon;timestamp;P1;durP1;ratioP1;P2;durP2;ratioP2
49934;SDS011;39898;41.762;26.200;2023-06-22T06:02:40;18.33;;;11.68;;
49934;SDS011;39898;41.762;26.200;2023-06-22T06:05:11;19.80;;;12.25;;
49934;SDS011;39898;41.762;26.200;2023-06-22T06:07:40;20.55;;;12.30;;
49934;SDS011;39898;41.762;26.200;2023-06-22T06:10:07;26.90;;;14.07;;
49934;SDS011;39898;41.762;26.200;2023-06-22T06:12:34;24.47;;;12.43;;
49934;SDS011;39898;41.762;26.200;2023-06-22T06:15:01;17.65;;;11.45;;
49934;SDS011;39898;41.762;26.200;2023-06-22T06:17:28;22.08;;;11.10;;
49934;SDS011;39898;41.762;26.200;2023-06-22T06:19:54;20.90;;;11.00;;
49934;SDS011;39898;41.762;26.200;2023-06-22T06:22:21;18.80;;;10.38;;
49934;SDS011;39898;41.762;26.200;2023-06-22T06:24:49;15.68;;;10.70;;
49934;SDS011;39898;41.762;26.200;2023-06-22T06:27:16;25.75;;;11.10;;
49934;SDS011;39898;41.762;26.200;2023-06-22T06:29:45;16.73;;;10.93;;
49934;SDS011;39898;41.762;26.200;2023-06-22T06:32:14;13.43;;;10.68;;
49934;SDS011;39898;41.762;26.200;2023-06-22T06:34:41;18.58;;;10.65;;
49934;SDS011;39898;41.762;26.200;2023-06-22T06:37:08;14.82;;;10.50;;
49934;SDS011;39898;41.762;26.200;2023-06-22T06:39:34;15.57;;;10.30;;
49934;SDS011;39898;41.762;26.200;2023-06-22T06:42:01;16.80;;;10.50;;
49934;SDS011;39898;41.762;26.200;2023-06-22T06:44:27;15.25;;;9.82;;
49934;SDS011;39898;41.762;26.200;2023-06-22T06:46:54;17.38;;;10.20;;
49934;SDS011;39898;41.762;26.200;2023-06-22T06:49:21;21.52;;;9.73;;
49934;SDS011;39898;41.762;26.200;2023-06-22T06:51:47;14.35;;;9.75;;
49934;SDS011;39898;41.762;26.200;2023-06-22T06:54:14;15.80;;;9.65;;
49934;SDS011;39898;41.762;26.200;2023-06-22T06:56:40;15.35;;;10.10;;
49934;SDS011;39898;41.762;26.200;2023-06-22T06:59:11;14.82;;;9.60;;
49934;SDS011;39898;41.762;26.200;2023-06-22T07:01:37;15.23;;;9.63;;
49934;SDS011;39898;41.762;26.200;2023-06-22T07:04:04;15.48;;;9.85;;
49934;SDS011;39898;41.762;26.200;2023-06-22T07:06:31;14.68;;;9.10;;
49934;SDS011;39898;41.762;26.200;2023-06-22T07:08:59;14.80;;;8.93;;
49934;SDS011;39898;41.762;26.200;2023-06-22T07:11:27;14.70;;;9.98;;
49934;SDS011;39898;41.762;26.200;2023-06-22T07:13:54;12.90;;;8.63;;
49934;SDS011;39898;41.762;26.200;2023-06-22T07:16:20;16.92;;;9.75;;
49934;SDS011;39898;41.762;26.200;2023-06-22T07:18:47;14.32;;;9.10;;
49934;SDS011;39898;41.762;26.200;2023-06-22T07:21:14;19.52;;;9.50;;
49934;SDS011;39898;41.762;26.200;2023-06-22T07:23:40;12.02;;;9.32;;
49934;SDS011;39898;41.762;26.200;2023-06-22T07:26:07;17.00;;;9.17;;
49934;SDS011;39898;41.762;26.200;2023-06-22T07:28:34;16.67;;;10.02;;
49934;SDS011;39898;41.762;26.200;2023-06-22T07:31:04;14.73;;;10.50;;
49934;SDS011;39898;41.762;26.200;2023-06-22T07:33:31;14.68;;;9.05;;
49934;SDS011;39898;41.762;26.200;2023-06-22T07:35:57;12.68;;;9.45;;
49934;SDS011;39898;41.762;26.200;2023-06-22T07:38:24;15.38;;;8.68;;
49934;SDS011;39898;41.762;26.200;2023-06-22T07:40:50;13.27;;;8.90;;
49934;SDS011;39898;41.762;26.200;2023-06-22T07:43:19;11.13;;;8.65;;
49934;SDS011;39898;41.762;26.200;2023-06-22T07:48:13;11.85;;;9.13;;
49934;SDS011;39898;41.762;26.200;2023-06-22T07:50:40;11.05;;;8.95;;
49934;SDS011;39898;41.762;26.200;2023-06-22T07:53:06;11.77;;;8.68;;
49934;SDS011;39898;41.762;26.200;2023-06-22T07:55:33;14.43;;;9.40;;
49934;SDS011;39898;41.762;26.200;2023-06-22T07:58:00;14.23;;;8.73;;
49934;SDS011;39898;41.762;26.200;2023-06-22T08:00:26;14.48;;;10.02;;
49934;SDS011;39898;41.762;26.200;2023-06-22T08:02:53;12.43;;;9.77;;
49934;SDS011;39898;41.762;26.200;2023-06-22T08:05:20;24.77;;;9.93;;
49934;SDS011;39898;41.762;26.200;2023-06-22T08:07:48;13.02;;;8.55;;
49934;SDS011;39898;41.762;26.200;2023-06-22T08:10:15;14.55;;;9.02;;
49934;SDS011;39898;41.762;26.200;2023-06-22T08:12:42;11.73;;;8.40;;
49934;SDS011;39898;41.762;26.200;2023-06-22T08:15:09;12.07;;;9.07;;
49934;SDS011;39898;41.762;26.200;2023-06-22T08:17:36;10.68;;;8.65;;
49934;SDS011;39898;41.762;26.200;2023-06-22T08:22:36;17.90;;;9.45;;
49934;SDS011;39898;41.762;26.200;2023-06-22T08:25:05;15.93;;;9.80;;
49934;SDS011;39898;41.762;26.200;2023-06-22T08:27:32;18.20;;;8.90;;
49934;SDS011;39898;41.762;26.200;2023-06-22T08:29:59;15.90;;;9.73;;
49934;SDS011;39898;41.762;26.200;2023-06-22T08:32:29;11.50;;;8.90;;
49934;SDS011;39898;41.762;26.200;2023-06-22T08:34:56;15.73;;;9.00;;
49934;SDS011;39898;41.762;26.200;2023-06-22T08:37:23;13.18;;;9.05;;
49934;SDS011;39898;41.762;26.200;2023-06-22T08:39:51;11.07;;;9.18;;
49934;SDS011;39898;41.762;26.200;2023-06-22T08:42:17;11.05;;;8.70;;
49934;SDS011;39898;41.762;26.200;2023-06-22T08:44:44;15.93;;;9.70;;
49934;SDS011;39898;41.762;26.200;2023-06-22T08:47:11;12.50;;;8.73;;
49934;SDS011;39898;41.762;26.200;2023-06-22T08:49:38;13.85;;;8.50;;
49934;SDS011;39898;41.762;26.200;2023-06-22T08:52:04;10.95;;;8.38;;
49934;SDS011;39898;41.762;26.200;2023-06-22T08:54:33;12.00;;;8.85;;
49934;SDS011;39898;41.762;26.200;2023-06-22T08:59:28;12.32;;;8.45;;
49934;SDS011;39898;41.762;26.200;2023-06-22T09:01:55;15.50;;;8.38;;
49934;SDS011;39898;41.762;26.200;2023-06-22T09:04:24;11.90;;;8.20;;
49934;SDS011;39898;41.762;26.200;2023-06-22T09:06:51;12.60;;;8.05;;
49934;SDS011;39898;41.762;26.200;2023-06-22T09:09:18;14.07;;;8.10;;
49934;SDS011;39898;41.762;26.200;2023-06-22T09:11:45;10.20;;;7.60;;
49934;SDS011;39898;41.762;26.200;2023-06-22T09:14:12;8.88;;;7.47;;
49934;SDS011;39898;41.762;26.200;2023-06-22T09:16:38;15.15;;;8.02;;
49934;SDS011;39898;41.762;26.200;2023-06-22T09:19:06;13.50;;;8.60;;
49934;SDS011;39898;41.762;26.200;2023-06-22T09:21:32;9.68;;;7.78;;
49934;SDS011;39898;41.762;26.200;2023-06-22T09:24:00;11.55;;;7.97;;
49934;SDS011;39898;41.762;26.200;2023-06-22T09:26:26;8.68;;;7.75;;
49934;SDS011;39898;41.762;26.200;2023-06-22T09:28:53;12.00;;;8.50;;
49934;SDS011;39898;41.762;26.200;2023-06-22T09:31:20;8.77;;;7.53;;
49934;SDS011;39898;41.762;26.200;2023-06-22T09:33:53;9.23;;;7.55;;
49934;SDS011;39898;41.762;26.200;2023-06-22T09:36:20;8.80;;;7.13;;
49934;SDS011;39898;41.762;26.200;2023-06-22T09:38:48;8.07;;;6.80;;
49934;SDS011;39898;41.762;26.200;2023-06-22T09:41:14;13.00;;;7.78;;
49934;SDS011;39898;41.762;26.200;2023-06-22T09:43:42;11.35;;;7.95;;
49934;SDS011;39898;41.762;26.200;2023-06-22T09:46:09;8.65;;;7.75;;
49934;SDS011;39898;41.762;26.200;2023-06-22T09:48:35;11.25;;;7.95;;
49934;SDS011;39898;41.762;26.200;2023-06-22T09:51:06;17.10;;;8.80;;
49934;SDS011;39898;41.762;26.200;2023-06-22T09:53:32;9.50;;;7.93;;
49934;SDS011;39898;41.762;26.200;2023-06-22T09:56:01;15.50;;;8.50;;
49934;SDS011;39898;41.762;26.200;2023-06-22T09:58:28;11.02;;;7.72;;
49934;SDS011;39898;41.762;26.200;2023-06-22T10:00:54;8.15;;;7.18;;
49934;SDS011;39898;41.762;26.200;2023-06-22T10:03:21;12.75;;;7.88;;
49934;SDS011;39898;41.762;26.200;2023-06-22T10:05:49;15.27;;;8.05;;
49934;SDS011;39898;41.762;26.200;2023-06-22T10:08:16;12.40;;;7.60;;
49934;SDS011;39898;41.762;26.200;2023-06-22T10:13:10;16.50;;;7.55;;
49934;SDS011;39898;41.762;26.200;2023-06-22T10:15:37;14.38;;;7.82;;
49934;SDS011;39898;41.762;26.200;2023-06-22T10:18:04;19.50;;;7.35;;
49934;SDS011;39898;41.762;26.200;2023-06-22T10:20:32;9.73;;;7.57;;
49934;SDS011;39898;41.762;26.200;2023-06-22T10:22:58;12.27;;;6.90;;
49934;SDS011;39898;41.762;26.200;2023-06-22T10:25:26;10.57;;;7.83;;
49934;SDS011;39898;41.762;26.200;2023-06-22T10:30:19;11.30;;;6.95;;
49934;SDS011;39898;41.762;26.200;2023-06-22T10:32:46;10.38;;;7.47;;
49934;SDS011;39898;41.762;26.200;2023-06-22T10:35:13;8.65;;;6.65;;
49934;SDS011;39898;41.762;26.200;2023-06-22T10:37:43;9.80;;;7.50;;
49934;SDS011;39898;41.762;26.200;2023-06-22T10:40:10;9.70;;;7.13;;
49934;SDS011;39898;41.762;26.200;2023-06-22T10:42:37;11.13;;;7.28;;
49934;SDS011;39898;41.762;26.200;2023-06-22T10:45:04;11.70;;;7.00;;
49934;SDS011;39898;41.762;26.200;2023-06-22T10:47:30;8.70;;;7.23;;
49934;SDS011;39898;41.762;26.200;2023-06-22T10:49:57;13.32;;;7.05;;
49934;SDS011;39898;41.762;26.200;2023-06-22T10:52:24;9.50;;;7.45;;
49934;SDS011;39898;41.762;26.200;2023-06-22T10:54:50;12.63;;;7.65;;
49934;SDS011;39898;41.762;26.200;2023-06-22T10:57:17;12.15;;;6.47;;
49934;SDS011;39898;41.762;26.200;2023-06-22T10:59:43;8.02;;;7.15;;
49934;SDS011;39898;41.762;26.200;2023-06-22T11:02:10;8.07;;;7.03;;
49934;SDS011;39898;41.762;26.200;2023-06-22T11:04:37;7.78;;;6.28;;
49934;SDS011;39898;41.762;26.200;2023-06-22T11:07:03;9.60;;;6.37;;
49934;SDS011;39898;41.762;26.200;2023-06-22T11:09:30;9.90;;;6.43;;
49934;SDS011;39898;41.762;26.200;2023-06-22T11:11:57;7.75;;;6.35;;
49934;SDS011;39898;41.762;26.200;2023-06-22T11:14:25;6.35;;;5.60;;
49934;SDS011;39898;41.762;26.200;2023-06-22T11:16:52;6.28;;;5.68;;
49934;SDS011;39898;41.762;26.200;2023-06-22T11:19:19;14.13;;;7.57;;
49934;SDS011;39898;41.762;26.200;2023-06-22T11:21:45;7.53;;;6.07;;
49934;SDS011;39898;41.762;26.200;2023-06-22T11:24:12;10.80;;;5.68;;
49934;SDS011;39898;41.762;26.200;2023-06-22T11:26:38;8.20;;;5.32;;
49934;SDS011;39898;41.762;26.200;2023-06-22T11:29:05;8.43;;;6.43;;
49934;SDS011;39898;41.762;26.200;2023-06-22T11:31:33;8.00;;;5.63;;
49934;SDS011;39898;41.762;26.200;2023-06-22T11:34:00;10.32;;;5.80;;
49934;SDS011;39898;41.762;26.200;2023-06-22T11:36:27;6.00;;;5.40;;
49934;SDS011;39898;41.762;26.200;2023-06-22T11:38:55;9.40;;;6.15;;
49934;SDS011;39898;41.762;26.200;2023-06-22T11:41:21;8.77;;;5.30;;
49934;SDS011;39898;41.762;26.200;2023-06-22T11:43:48;5.97;;;5.40;;
49934;SDS011;39898;41.762;26.200;2023-06-22T11:46:15;8.60;;;5.60;;
49934;SDS011;39898;41.762;26.200;2023-06-22T11:48:42;5.30;;;4.80;;
49934;SDS011;39898;41.762;26.200;2023-06-22T11:51:09;7.28;;;5.45;;
49934;SDS011;39898;41.762;26.200;2023-06-22T11:53:35;6.38;;;4.80;;
49934;SDS011;39898;41.762;26.200;2023-06-22T11:56:02;5.43;;;4.83;;
49934;SDS011;39898;41.762;26.200;2023-06-22T11:58:29;5.70;;;4.83;;
49934;SDS011;39898;41.762;26.200;2023-06-22T12:00:55;7.10;;;5.20;;
49934;SDS011;39898;41.762;26.200;2023-06-22T12:03:24;5.55;;;4.95;;
49934;SDS011;39898;41.762;26.200;2023-06-22T12:05:50;5.68;;;4.65;;
49934;SDS011;39898;41.762;26.200;2023-06-22T12:08:18;6.22;;;4.47;;
49934;SDS011;39898;41.762;26.200;2023-06-22T12:10:45;7.23;;;4.73;;
49934;SDS011;39898;41.762;26.200;2023-06-22T12:13:12;10.03;;;4.97;;
49934;SDS011;39898;41.762;26.200;2023-06-22T12:15:39;6.75;;;4.25;;
49934;SDS011;39898;41.762;26.200;2023-06-22T12:18:06;8.07;;;4.87;;
49934;SDS011;39898;41.762;26.200;2023-06-22T12:20:32;5.10;;;4.30;;
49934;SDS011;39898;41.762;26.200;2023-06-22T12:22:59;5.22;;;4.72;;
49934;SDS011;39898;41.762;26.200;2023-06-22T12:25:25;4.15;;;3.75;;
49934;SDS011;39898;41.762;26.200;2023-06-22T12:27:52;10.07;;;4.63;;
49934;SDS011;39898;41.762;26.200;2023-06-22T12:30:20;6.45;;;4.50;;
49934;SDS011;39898;41.762;26.200;2023-06-22T12:32:46;5.90;;;4.70;;
49934;SDS011;39898;41.762;26.200;2023-06-22T12:35:13;5.20;;;4.10;;
49934;SDS011;39898;41.762;26.200;2023-06-22T12:37:41;5.93;;;4.57;;
49934;SDS011;39898;41.762;26.200;2023-06-22T12:40:09;5.53;;;4.55;;
49934;SDS011;39898;41.762;26.200;2023-06-22T12:42:36;5.30;;;4.32;;
49934;SDS011;39898;41.762;26.200;2023-06-22T12:45:02;7.90;;;4.63;;
49934;SDS011;39898;41.762;26.200;2023-06-22T12:47:29;8.80;;;4.43;;
49934;SDS011;39898;41.762;26.200;2023-06-22T12:49:56;6.55;;;4.68;;
49934;SDS011;39898;41.762;26.200;2023-06-22T12:52:23;8.37;;;4.33;;
49934;SDS011;39898;41.762;26.200;2023-06-22T12:54:49;5.47;;;4.47;;
49934;SDS011;39898;41.762;26.200;2023-06-22T12:57:21;7.47;;;4.50;;
49934;SDS011;39898;41.762;26.200;2023-06-22T12:59:48;6.30;;;4.53;;
49934;SDS011;39898;41.762;26.200;2023-06-22T13:02:15;6.43;;;4.32;;
49934;SDS011;39898;41.762;26.200;2023-06-22T13:04:41;8.82;;;4.82;;
49934;SDS011;39898;41.762;26.200;2023-06-22T13:07:09;20.13;;;5.30;;
49934;SDS011;39898;41.762;26.200;2023-06-22T13:09:39;8.18;;;5.15;;
49934;SDS011;39898;41.762;26.200;2023-06-22T13:12:05;5.03;;;4.47;;
49934;SDS011;39898;41.762;26.200;2023-06-22T13:14:32;14.07;;;5.43;;
49934;SDS011;39898;41.762;26.200;2023-06-22T13:16:59;7.47;;;5.10;;
49934;SDS011;39898;41.762;26.200;2023-06-22T13:19:25;5.38;;;4.30;;
49934;SDS011;39898;41.762;26.200;2023-06-22T13:21:55;6.10;;;4.72;;
49934;SDS011;39898;41.762;26.200;2023-06-22T13:24:21;9.43;;;4.57;;
49934;SDS011;39898;41.762;26.200;2023-06-22T13:26:48;6.90;;;5.10;;
49934;SDS011;39898;41.762;26.200;2023-06-22T13:29:15;8.03;;;4.73;;
49934;SDS011;39898;41.762;26.200;2023-06-22T13:31:41;10.70;;;4.32;;
49934;SDS011;39898;41.762;26.200;2023-06-22T13:34:08;5.43;;;3.95;;
49934;SDS011;39898;41.762;26.200;2023-06-22T13:36:35;12.32;;;4.55;;
49934;SDS011;39898;41.762;26.200;2023-06-22T13:39:01;7.65;;;5.05;;
49934;SDS011;39898;41.762;26.200;2023-06-22T13:41:28;6.53;;;5.07;;
49934;SDS011;39898;41.762;26.200;2023-06-22T13:43:55;7.93;;;4.80;;
49934;SDS011;39898;41.762;26.200;2023-06-22T13:46:21;5.07;;;4.23;;
49934;SDS011;39898;41.762;26.200;2023-06-22T13:48:48;8.05;;;4.53;;
49934;SDS011;39898;41.762;26.200;2023-06-22T13:51:14;7.70;;;4.90;;
49934;SDS011;39898;41.762;26.200;2023-06-22T13:53:41;18.13;;;4.80;;
49934;SDS011;39898;41.762;26.200;2023-06-22T13:56:08;6.88;;;5.00;;
49934;SDS011;39898;41.762;26.200;2023-06-22T13:58:34;6.10;;;4.65;;
49934;SDS011;39898;41.762;26.200;2023-06-22T14:01:01;6.73;;;4.50;;
49934;SDS011;39898;41.762;26.200;2023-06-22T14:03:28;7.70;;;4.93;;
49934;SDS011;39898;41.762;26.200;2023-06-22T14:05:54;4.57;;;4.15;;
49934;SDS011;39898;41.762;26.200;2023-06-22T14:08:22;5.28;;;4.40;;
49934;SDS011;39898;41.762;26.200;2023-06-22T14:11:07;10.32;;;5.20;;
49934;SDS011;39898;41.762;26.200;2023-06-22T14:13:33;11.50;;;5.13;;
49934;SDS011;39898;41.762;26.200;2023-06-22T14:16:02;5.47;;;4.93;;
49934;SDS011;39898;41.762;26.200;2023-06-22T14:18:28;5.78;;;4.85;;
49934;SDS011;39898;41.762;26.200;2023-06-22T14:20:55;5.68;;;4.60;;
49934;SDS011;39898;41.762;26.200;2023-06-22T14:23:22;4.83;;;4.00;;
49934;SDS011;39898;41.762;26.200;2023-06-22T14:25:48;6.63;;;4.85;;
49934;SDS011;39898;41.762;26.200;2023-06-22T14:28:15;7.53;;;4.40;;
49934;SDS011;39898;41.762;26.200;2023-06-22T14:33:09;7.40;;;4.60;;
49934;SDS011;39898;41.762;26.200;2023-06-22T14:35:36;6.68;;;4.63;;
49934;SDS011;39898;41.762;26.200;2023-06-22T14:38:02;10.68;;;4.95;;
49934;SDS011;39898;41.762;26.200;2023-06-22T14:40:29;6.88;;;4.78;;
49934;SDS011;39898;41.762;26.200;2023-06-22T14:43:01;6.15;;;4.60;;
49934;SDS011;39898;41.762;26.200;2023-06-22T14:45:27;5.82;;;4.60;;
49934;SDS011;39898;41.762;26.200;2023-06-22T14:47:55;13.20;;;4.40;;
49934;SDS011;39898;41.762;26.200;2023-06-22T14:50:21;13.38;;;4.75;;
49934;SDS011;39898;41.762;26.200;2023-06-22T14:52:48;6.60;;;4.63;;
49934;SDS011;39898;41.762;26.200;2023-06-22T14:55:15;7.75;;;4.70;;
49934;SDS011;39898;41.762;26.200;2023-06-22T14:57:42;9.13;;;4.68;;
49934;SDS011;39898;41.762;26.200;2023-06-22T15:00:09;5.53;;;4.82;;
49934;SDS011;39898;41.762;26.200;2023-06-22T15:02:36;9.82;;;4.40;;
49934;SDS011;39898;41.762;26.200;2023-06-22T15:05:02;7.77;;;4.40;;
49934;SDS011;39898;41.762;26.200;2023-06-22T15:07:29;5.03;;;4.53;;
49934;SDS011;39898;41.762;26.200;2023-06-22T15:09:56;9.27;;;4.43;;
49934;SDS011;39898;41.762;26.200;2023-06-22T15:12:22;7.40;;;4.63;;
49934;SDS011;39898;41.762;26.200;2023-06-22T15:14:49;6.00;;;4.72;;
49934;SDS011;39898;41.762;26.200;2023-06-22T15:17:16;10.73;;;5.30;;
49934;SDS011;39898;41.762;26.200;2023-06-22T15:19:42;6.97;;;4.70;;
49934;SDS011;39898;41.762;26.200;2023-06-22T15:22:09;5.20;;;4.10;;
49934;SDS011;39898;41.762;26.200;2023-06-22T15:24:36;7.55;;;5.25;;
49934;SDS011;39898;41.762;26.200;2023-06-22T15:27:02;8.50;;;4.75;;
49934;SDS011;39898;41.762;26.200;2023-06-22T15:29:29;7.95;;;5.30;;
49934;SDS011;39898;41.762;26.200;2023-06-22T15:32:00;7.18;;;4.72;;
49934;SDS011;39898;41.762;26.200;2023-06-22T15:34:27;6.50;;;5.22;;
49934;SDS011;39898;41.762;26.200;2023-06-22T15:36:54;6.30;;;4.95;;
49934;SDS011;39898;41.762;26.200;2023-06-22T15:39:21;6.90;;;4.50;;
49934;SDS011;39898;41.762;26.200;2023-06-22T15:41:49;8.73;;;4.72;;
49934;SDS011;39898;41.762;26.200;2023-06-22T15:44:16;6.03;;;5.23;;
49934;SDS011;39898;41.762;26.200;2023-06-22T15:46:42;5.32;;;4.82;;
49934;SDS011;39898;41.762;26.200;2023-06-22T15:49:09;8.50;;;5.33;;
49934;SDS011;39898;41.762;26.200;2023-06-22T15:51:36;9.70;;;4.70;;
49934;SDS011;39898;41.762;26.200;2023-06-22T15:54:03;6.28;;;4.40;;
49934;SDS011;39898;41.762;26.200;2023-06-22T15:56:29;9.35;;;4.97;;
49934;SDS011;39898;41.762;26.200;2023-06-22T15:58:56;4.72;;;4.32;;
49934;SDS011;39898;41.762;26.200;2023-06-22T16:01:23;10.73;;;5.07;;
49934;SDS011;39898;41.762;26.200;2023-06-22T16:03:50;5.50;;;4.60;;
49934;SDS011;39898;41.762;26.200;2023-06-22T16:06:17;7.00;;;4.68;;
49934;SDS011;39898;41.762;26.200;2023-06-22T16:08:44;6.82;;;4.57;;
49934;SDS011;39898;41.762;26.200;2023-06-22T16:11:10;5.22;;;4.68;;
49934;SDS011;39898;41.762;26.200;2023-06-22T16:13:37;6.93;;;5.15;;
49934;SDS011;39898;41.762;26.200;2023-06-22T16:16:05;14.10;;;6.93;;
49934;SDS011;39898;41.762;26.200;2023-06-22T16:18:32;19.92;;;6.03;;
49934;SDS011;39898;41.762;26.200;2023-06-22T16:20:59;10.00;;;6.30;;
49934;SDS011;39898;41.762;26.200;2023-06-22T16:23:25;7.80;;;5.20;;
49934;SDS011;39898;41.762;26.200;2023-06-22T16:25:52;14.73;;;6.50;;
49934;SDS011;39898;41.762;26.200;2023-06-22T16:28:18;12.40;;;5.43;;
49934;SDS011;39898;41.762;26.200;2023-06-22T16:30:45;7.05;;;4.68;;
49934;SDS011;39898;41.762;26.200;2023-06-22T16:33:11;14.60;;;6.03;;
49934;SDS011;39898;41.762;26.200;2023-06-22T16:35:38;9.45;;;5.15;;
49934;SDS011;39898;41.762;26.200;2023-06-22T16:38:07;9.52;;;6.20;;
49934;SDS011;39898;41.762;26.200;2023-06-22T16:40:33;6.75;;;5.18;;
49934;SDS011;39898;41.762;26.200;2023-06-22T16:43:00;12.25;;;5.72;;
49934;SDS011;39898;41.762;26.200;2023-06-22T16:45:26;9.57;;;5.43;;
49934;SDS011;39898;41.762;26.200;2023-06-22T16:47:53;9.00;;;5.78;;
49934;SDS011;39898;41.762;26.200;2023-06-22T16:50:20;12.68;;;6.07;;
49934;SDS011;39898;41.762;26.200;2023-06-22T16:52:47;13.65;;;7.22;;
49934;SDS011;39898;41.762;26.200;2023-06-22T16:55:14;11.18;;;6.65;;
49934;SDS011;39898;41.762;26.200;2023-06-22T16:57:41;12.88;;;7.47;;
49934;SDS011;39898;41.762;26.200;2023-06-22T17:00:08;10.85;;;6.50;;
49934;SDS011;39898;41.762;26.200;2023-06-22T17:02:46;9.82;;;5.70;;
49934;SDS011;39898;41.762;26.200;2023-06-22T17:05:14;9.27;;;6.22;;
49934;SDS011;39898;41.762;26.200;2023-06-22T17:07:43;8.40;;;5.78;;
49934;SDS011;39898;41.762;26.200;2023-06-22T17:10:14;7.20;;;5.20;;
49934;SDS011;39898;41.762;26.200;2023-06-22T17:12:41;7.80;;;5.50;;
49934;SDS011;39898;41.762;26.200;2023-06-22T17:15:08;6.32;;;5.07;;
49934;SDS011;39898;41.762;26.200;2023-06-22T17:17:36;8.05;;;5.50;;
49934;SDS011;39898;41.762;26.200;2023-06-22T17:20:04;8.80;;;5.70;;
49934;SDS011;39898;41.762;26.200;2023-06-22T17:22:31;8.23;;;5.75;;
49934;SDS011;39898;41.762;26.200;2023-06-22T17:25:02;10.15;;;6.80;;
49934;SDS011;39898;41.762;26.200;2023-06-22T17:27:29;10.18;;;5.43;;
49934;SDS011;39898;41.762;26.200;2023-06-22T17:30:06;8.57;;;5.72;;
49934;SDS011;39898;41.762;26.200;2023-06-22T17:32:33;8.05;;;5.60;;
49934;SDS011;39898;41.762;26.200;2023-06-22T17:34:59;7.30;;;5.93;;
49934;SDS011;39898;41.762;26.200;2023-06-22T17:37:26;10.55;;;6.00;;
49934;SDS011;39898;41.762;26.200;2023-06-22T17:39:56;8.05;;;5.63;;
49934;SDS011;39898;41.762;26.200;2023-06-22T17:42:23;8.68;;;5.90;;
49934;SDS011;39898;41.762;26.200;2023-06-22T17:44:50;10.70;;;5.90;;
49934;SDS011;39898;41.762;26.200;2023-06-22T17:47:23;8.73;;;5.70;;
49934;SDS011;39898;41.762;26.200;2023-06-22T17:49:50;9.98;;;5.40;;
49934;SDS011;39898;41.762;26.200;2023-06-22T17:52:18;15.83;;;6.73;;
49934;SDS011;39898;41.762;26.200;2023-06-22T17:54:50;11.82;;;5.50;;
49934;SDS011;39898;41.762;26.200;2023-06-22T17:57:36;11.13;;;5.90;;
49934;SDS011;39898;41.762;26.200;2023-06-22T18:00:04;12.85;;;5.78;;
49934;SDS011;39898;41.762;26.200;2023-06-22T18:02:39;10.38;;;6.18;;
49934;SDS011;39898;41.762;26.200;2023-06-22T18:05:09;12.52;;;6.00;;
49934;SDS011;39898;41.762;26.200;2023-06-22T18:07:36;10.02;;;6.18;;
49934;SDS011;39898;41.762;26.200;2023-06-22T18:10:07;13.50;;;6.30;;
49934;SDS011;39898;41.762;26.200;2023-06-22T18:12:34;10.35;;;5.65;;
49934;SDS011;39898;41.762;26.200;2023-06-22T18:15:01;8.02;;;6.00;;
49934;SDS011;39898;41.762;26.200;2023-06-22T18:17:28;18.30;;;6.35;;
49934;SDS011;39898;41.762;26.200;2023-06-22T18:19:55;7.53;;;6.05;;
49934;SDS011;39898;41.762;26.200;2023-06-22T18:22:22;9.88;;;5.95;;
49934;SDS011;39898;41.762;26.200;2023-06-22T18:24:49;10.18;;;5.72;;
49934;SDS011;39898;41.762;26.200;2023-06-22T18:27:16;12.68;;;6.53;;
49934;SDS011;39898;41.762;26.200;2023-06-22T18:29:43;13.07;;;6.63;;
49934;SDS011;39898;41.762;26.200;2023-06-22T18:32:11;10.10;;;6.70;;
49934;SDS011;39898;41.762;26.200;2023-06-22T18:34:39;10.68;;;6.25;;
49934;SDS011;39898;41.762;26.200;2023-06-22T18:37:10;10.35;;;5.68;;
49934;SDS011;39898;41.762;26.200;2023-06-22T18:39:38;7.85;;;5.13;;
49934;SDS011;39898;41.762;26.200;2023-06-22T18:42:08;8.27;;;5.78;;
49934;SDS011;39898;41.762;26.200;2023-06-22T18:44:34;13.63;;;5.82;;
49934;SDS011;39898;41.762;26.200;2023-06-22T18:47:02;13.63;;;6.57;;
49934;SDS011;39898;41.762;26.200;2023-06-22T18:49:33;9.85;;;5.90;;
49934;SDS011;39898;41.762;26.200;2023-06-22T18:54:46;17.25;;;6.20;;
49934;SDS011;39898;41.762;26.200;2023-06-22T18:57:21;9.68;;;5.57;;
49934;SDS011;39898;41.762;26.200;2023-06-22T18:59:49;8.70;;;5.85;;
49934;SDS011;39898;41.762;26.200;2023-06-22T19:10:42;7.20;;;5.47;;
49934;SDS011;39898;41.762;26.200;2023-06-22T19:18:21;9.40;;;5.70;;
49934;SDS011;39898;41.762;26.200;2023-06-22T19:20:51;8.88;;;6.15;;
49934;SDS011;39898;41.762;26.200;2023-06-22T19:25:57;19.00;;;6.85;;
49934;SDS011;39898;41.762;26.200;2023-06-22T19:28:25;11.73;;;6.95;;
49934;SDS011;39898;41.762;26.200;2023-06-22T19:30:58;13.65;;;6.45;;
49934;SDS011;39898;41.762;26.200;2023-06-22T19:33:26;10.82;;;6.60;;
49934;SDS011;39898;41.762;26.200;2023-06-22T19:35:59;14.00;;;6.75;;
49934;SDS011;39898;41.762;26.200;2023-06-22T19:38:26;13.23;;;6.57;;
49934;SDS011;39898;41.762;26.200;2023-06-22T19:40:53;13.27;;;6.65;;
49934;SDS011;39898;41.762;26.200;2023-06-22T19:43:20;17.23;;;6.63;;
49934;SDS011;39898;41.762;26.200;2023-06-22T19:45:47;7.10;;;5.80;;
49934;SDS011;39898;41.762;26.200;2023-06-22T19:48:15;9.68;;;6.20;;
49934;SDS011;39898;41.762;26.200;2023-06-22T19:50:42;11.77;;;6.35;;
49934;SDS011;39898;41.762;26.200;2023-06-22T19:53:12;12.93;;;5.88;;
49934;SDS011;39898;41.762;26.200;2023-06-22T19:55:39;9.82;;;6.05;;
49934;SDS011;39898;41.762;26.200;2023-06-22T19:58:09;9.82;;;6.15;;
49934;SDS011;39898;41.762;26.200;2023-06-22T20:00:37;7.03;;;5.75;;
49934;SDS011;39898;41.762;26.200;2023-06-22T20:03:07;14.00;;;6.33;;
49934;SDS011;39898;41.762;26.200;2023-06-22T20:05:39;6.75;;;5.78;;
49934;SDS011;39898;41.762;26.200;2023-06-22T20:08:06;8.85;;;6.22;;
49934;SDS011;39898;41.762;26.200;2023-06-22T20:10:36;7.75;;;6.53;;
49934;SDS011;39898;41.762;26.200;2023-06-22T20:15:30;9.65;;;6.65;;
49934;SDS011;39898;41.762;26.200;2023-06-22T20:20:24;16.80;;;6.55;;
49934;SDS011;39898;41.762;26.200;2023-06-22T20:22:55;12.70;;;6.30;;
49934;SDS011;39898;41.762;26.200;2023-06-22T20:25:23;10.02;;;6.20;;
49934;SDS011;39898;41.762;26.200;2023-06-22T20:27:50;10.97;;;5.83;;
49934;SDS011;39898;41.762;26.200;2023-06-22T20:30:20;12.23;;;6.50;;
49934;SDS011;39898;41.762;26.200;2023-06-22T20:32:54;17.17;;;6.63;;
49934;SDS011;39898;41.762;26.200;2023-06-22T20:35:22;11.45;;;6.65;;
49934;SDS011;39898;41.762;26.200;2023-06-22T20:37:49;9.90;;;6.68;;
49934;SDS011;39898;41.762;26.200;2023-06-22T20:40:23;12.10;;;5.88;;
49934;SDS011;39898;41.762;26.200;2023-06-22T20:42:56;14.35;;;7.07;;
49934;SDS011;39898;41.762;26.200;2023-06-22T20:45:23;18.23;;;7.03;;
49934;SDS011;39898;41.762;26.200;2023-06-22T20:47:51;15.77;;;7.78;;
49934;SDS011;39898;41.762;26.200;2023-06-22T20:50:18;8.75;;;5.95;;
49934;SDS011;39898;41.762;26.200;2023-06-22T20:52:45;7.75;;;6.25;;
49934;SDS011;39898;41.762;26.200;2023-06-22T20:57:40;10.57;;;6.70;;
49934;SDS011;39898;41.762;26.200;2023-06-22T21:00:07;11.25;;;7.07;;
49934;SDS011;39898;41.762;26.200;2023-06-22T21:02:34;10.43;;;7.30;;
49934;SDS011;39898;41.762;26.200;2023-06-22T21:05:01;9.02;;;7.03;;
49934;SDS011;39898;41.762;26.200;2023-06-22T21:07:28;10.13;;;7.13;;
49934;SDS011;39898;41.762;26.200;2023-06-22T21:09:54;12.98;;;6.97;;